| time (UTC) | temp C | wind direction | speed KPH | gust KPH | rain 1hr cm | rain 24hr cm | rain mn cm | humidity % | barometer mb |
| 20260507184519 | 12 | 15 | 9.7 | 17.7 | 0.00 | 0.00 | 0.00 | 78 | 1020.1 |
| 20260507184006 | 11 | 330 | 9.7 | 17.7 | 0.00 | 0.00 | 0.00 | 78 | 1020.1 |
| 20260507183453 | 11 | 70 | 4.8 | 16.1 | 0.00 | 0.00 | 0.00 | 80 | 1020.1 |
| 20260507182940 | 11 | 61 | 6.4 | 16.1 | 0.00 | 0.00 | 0.00 | 79 | 1020.2 |
| 20260507182427 | 11 | 357 | 4.8 | 16.1 | 0.00 | 0.00 | 0.00 | 79 | 1020.1 |
| 20260507181914 | 11 | 343 | 9.7 | 16.1 | 0.00 | 0.00 | 0.00 | 79 | 1020.3 |
| 20260507181401 | 11 | 0 | 0.0 | 19.3 | 0.00 | 0.00 | 0.00 | 80 | 1020.2 |
| 20260507180848 | 11 | 302 | 3.2 | 19.3 | 0.00 | 0.00 | 0.00 | 81 | 1020.2 |
| 20260507180335 | 11 | 331 | 11.3 | 19.3 | 0.00 | 0.00 | 0.00 | 80 | 1020.3 |
| 20260507175822 | 11 | 58 | 3.2 | 16.1 | 0.00 | 0.00 | 0.00 | 81 | 1020.3 |
| 20260507175309 | 11 | 310 | 9.7 | 16.1 | 0.00 | 0.00 | 0.00 | 81 | 1020.3 |
| 20260507174756 | 11 | 334 | 6.4 | 16.1 | 0.00 | 0.00 | 0.00 | 81 | 1020.3 |
| 20260507174245 | 11 | 15 | 6.4 | 16.1 | 0.00 | 0.00 | 0.00 | 82 | 1020.3 |
| 20260507173730 | 11 | 357 | 8.0 | 16.1 | 0.00 | 0.00 | 0.00 | 82 | 1020.3 |
| 20260507173217 | 11 | 291 | 8.0 | 16.1 | 0.00 | 0.00 | 0.00 | 82 | 1020.3 |
| 20260507172704 | 11 | 343 | 6.4 | 14.5 | 0.00 | 0.00 | 0.00 | 83 | 1020.3 |
| 20260507172152 | 11 | 78 | 0.0 | 14.5 | 0.00 | 0.00 | 0.00 | 83 | 1020.3 |
| 20260507171638 | 11 | 320 | 6.4 | 14.5 | 0.00 | 0.00 | 0.00 | 83 | 1020.4 |
| 20260507171125 | 11 | 319 | 9.7 | 14.5 | 0.00 | 0.00 | 0.00 | 83 | 1020.5 |
| 20260507170612 | 11 | 334 | 4.8 | 14.5 | 0.00 | 0.00 | 0.00 | 84 | 1020.6 |
| 20260507170059 | 11 | 25 | 0.0 | 12.9 | 0.00 | 0.00 | 0.00 | 84 | 1020.5 |
| 20260507165546 | 11 | 102 | 1.6 | 12.9 | 0.00 | 0.00 | 0.00 | 84 | 1020.5 |
| 20260507165033 | 11 | 338 | 3.2 | 11.3 | 0.00 | 0.00 | 0.00 | 85 | 1020.7 |
| 20260507164520 | 10 | 249 | 0.0 | 11.3 | 0.00 | 0.00 | 0.00 | 85 | 1020.6 |
| 20260507164007 | 10 | 9 | 0.0 | 11.3 | 0.00 | 0.00 | 0.00 | 85 | 1020.6 |
| 20260507162941 | 10 | 357 | 1.6 | 16.1 | 0.00 | 0.00 | 0.00 | 85 | 1020.7 |
| 20260507162428 | 10 | 0 | 0.0 | 16.1 | 0.00 | 0.00 | 0.00 | 86 | 1020.5 |
| 20260507161915 | 10 | 152 | 6.4 | 14.5 | 0.00 | 0.00 | 0.00 | 86 | 1020.6 |
| 20260507161402 | 10 | 0 | 0.0 | 12.9 | 0.00 | 0.00 | 0.00 | 86 | 1020.6 |
| 20260507160849 | 10 | 310 | 0.0 | 9.7 | 0.00 | 0.00 | 0.00 | 86 | 1020.6 |
| 20260507160336 | 10 | 0 | 0.0 | 9.7 | 0.00 | 0.00 | 0.00 | 87 | 1020.5 |
| 20260507155823 | 10 | 0 | 0.0 | 8.0 | 0.00 | 0.00 | 0.00 | 87 | 1020.5 |
| 20260507155310 | 10 | 32 | 0.0 | 6.4 | 0.00 | 0.00 | 0.00 | 87 | 1020.5 |
| 20260507154757 | 10 | 309 | 0.0 | 6.4 | 0.00 | 0.00 | 0.00 | 87 | 1020.5 |
| 20260507154244 | 10 | 312 | 0.0 | 6.4 | 0.00 | 0.00 | 0.00 | 87 | 1020.7 |
| 20260507153731 | 10 | 319 | 0.0 | 8.0 | 0.00 | 0.00 | 0.00 | 87 | 1020.6 |
| 20260507153218 | 10 | 299 | 3.2 | 8.0 | 0.00 | 0.00 | 0.00 | 87 | 1020.7 |
| 20260507152705 | 10 | 323 | 3.2 | 8.0 | 0.00 | 0.00 | 0.00 | 87 | 1020.7 |
| 20260507152152 | 10 | 324 | 0.0 | 4.8 | 0.00 | 0.00 | 0.00 | 87 | 1020.7 |
| 20260507151639 | 10 | 0 | 0.0 | 3.2 | 0.00 | 0.00 | 0.00 | 88 | 1020.7 |
| 20260507151126 | 10 | 57 | 0.0 | 3.2 | 0.00 | 0.00 | 0.00 | 88 | 1020.6 |
| 20260507150613 | 10 | 0 | 0.0 | 0.0 | 0.00 | 0.00 | 0.00 | 88 | 1020.6 |
| 20260507145547 | 10 | 0 | 0.0 | 0.0 | 0.00 | 0.00 | 0.00 | 88 | 1020.7 |
| 20260507145034 | 10 | 0 | 0.0 | 0.0 | 0.00 | 0.00 | 0.00 | 88 | 1020.6 |
| 20260507143455 | 10 | 0 | 0.0 | 0.0 | 0.00 | 0.00 | 0.00 | 89 | 1020.7 |
| 20260507142942 | 10 | 0 | 0.0 | 0.0 | 0.00 | 0.00 | 0.00 | 89 | 1020.6 |
| 20260507142429 | 10 | 0 | 0.0 | 0.0 | 0.00 | 0.00 | 0.00 | 88 | 1020.6 |
| 20260507141916 | 10 | 0 | 0.0 | 0.0 | 0.00 | 0.00 | 0.00 | 89 | 1020.6 |
| 20260507141403 | 10 | 0 | 0.0 | 0.0 | 0.00 | 0.00 | 0.00 | 89 | 1020.5 |
| 20260507140850 | 10 | 0 | 0.0 | 0.0 | 0.00 | 0.00 | 0.00 | 88 | 1020.6 |
| 20260507140337 | 10 | 0 | 0.0 | 0.0 | 0.00 | 0.00 | 0.00 | 88 | 1020.5 |
| 20260507135824 | 10 | 0 | 0.0 | 0.0 | 0.00 | 0.00 | 0.00 | 88 | 1020.6 |
| 20260507135311 | 10 | 0 | 0.0 | 0.0 | 0.00 | 0.00 | 0.00 | 88 | 1020.5 |
| 20260507134758 | 10 | 0 | 0.0 | 0.0 | 0.00 | 0.00 | 0.00 | 88 | 1020.5 |
| 20260507134245 | 10 | 0 | 0.0 | 0.0 | 0.00 | 0.00 | 0.00 | 88 | 1020.4 |
| 20260507133732 | 10 | 0 | 0.0 | 0.0 | 0.00 | 0.00 | 0.00 | 88 | 1020.4 |
| 20260507133219 | 10 | 0 | 0.0 | 0.0 | 0.00 | 0.00 | 0.00 | 88 | 1020.4 |
| 20260507132706 | 10 | 0 | 0.0 | 0.0 | 0.00 | 0.00 | 0.00 | 88 | 1020.4 |
| 20260507132153 | 10 | 0 | 0.0 | 0.0 | 0.00 | 0.00 | 0.00 | 88 | 1020.4 |
| 20260507131640 | 10 | 0 | 0.0 | 0.0 | 0.00 | 0.00 | 0.00 | 88 | 1020.4 |
| 20260507131127 | 10 | 0 | 0.0 | 0.0 | 0.00 | 0.00 | 0.00 | 88 | 1020.4 |
| 20260507130614 | 10 | 0 | 0.0 | 0.0 | 0.00 | 0.00 | 0.00 | 88 | 1020.4 |
| 20260507130101 | 10 | 0 | 0.0 | 0.0 | 0.00 | 0.00 | 0.00 | 88 | 1020.4 |
| 20260507125548 | 10 | 0 | 0.0 | 0.0 | 0.00 | 0.00 | 0.00 | 88 | 1020.3 |
| 20260507125035 | 10 | 0 | 0.0 | 0.0 | 0.00 | 0.00 | 0.00 | 88 | 1020.4 |
| 20260507124522 | 10 | 0 | 0.0 | 0.0 | 0.00 | 0.00 | 0.00 | 88 | 1020.3 |
| 20260507124009 | 10 | 0 | 0.0 | 0.0 | 0.00 | 0.00 | 0.00 | 88 | 1020.3 |
| 20260507123456 | 10 | 0 | 0.0 | 0.0 | 0.00 | 0.00 | 0.00 | 88 | 1020.3 |
| 20260507122943 | 10 | 0 | 0.0 | 0.0 | 0.00 | 0.00 | 0.00 | 88 | 1020.3 |
| 20260507122430 | 10 | 0 | 0.0 | 0.0 | 0.00 | 0.00 | 0.00 | 88 | 1020.3 |
| 20260507121404 | 10 | 0 | 0.0 | 0.0 | 0.00 | 0.00 | 0.00 | 88 | 1020.4 |
| 20260507120851 | 10 | 0 | 0.0 | 0.0 | 0.00 | 0.00 | 0.00 | 88 | 1020.4 |
| 20260507120338 | 10 | 0 | 0.0 | 0.0 | 0.00 | 0.00 | 0.00 | 88 | 1020.4 |
| 20260507115825 | 10 | 0 | 0.0 | 0.0 | 0.00 | 0.00 | 0.00 | 88 | 1020.5 |
| 20260507115312 | 10 | 0 | 0.0 | 0.0 | 0.00 | 0.00 | 0.00 | 88 | 1020.6 |
| 20260507114759 | 10 | 0 | 0.0 | 0.0 | 0.00 | 0.00 | 0.00 | 88 | 1020.6 |
| 20260507114246 | 10 | 0 | 0.0 | 0.0 | 0.00 | 0.00 | 0.00 | 88 | 1020.7 |
| 20260507113733 | 10 | 0 | 0.0 | 0.0 | 0.00 | 0.00 | 0.00 | 88 | 1020.7 |
| 20260507113220 | 10 | 0 | 0.0 | 0.0 | 0.00 | 0.00 | 0.00 | 88 | 1020.6 |
| 20260507112707 | 10 | 0 | 0.0 | 0.0 | 0.00 | 0.00 | 0.00 | 88 | 1020.6 |
| 20260507112155 | 10 | 0 | 0.0 | 0.0 | 0.00 | 0.00 | 0.00 | 88 | 1020.6 |
| 20260507111641 | 10 | 0 | 0.0 | 0.0 | 0.00 | 0.00 | 0.00 | 88 | 1020.6 |
| 20260507111219 | 10 | 0 | 0.0 | 0.0 | 0.00 | 0.00 | 0.00 | 88 | 1020.8 |
| 20260507111128 | 10 | 0 | 0.0 | 0.0 | 0.00 | 0.00 | 0.00 | 88 | 1020.8 |
| 20260507110615 | 10 | 0 | 0.0 | 0.0 | 0.00 | 0.00 | 0.00 | 88 | 1020.8 |
| 20260507105549 | 10 | 0 | 0.0 | 0.0 | 0.00 | 0.00 | 0.00 | 88 | 1020.8 |
| 20260507105036 | 10 | 0 | 0.0 | 0.0 | 0.00 | 0.00 | 0.00 | 88 | 1020.8 |
| 20260507104010 | 10 | 0 | 0.0 | 0.0 | 0.00 | 0.00 | 0.00 | 88 | 1020.9 |
| 20260507103456 | 10 | 0 | 0.0 | 0.0 | 0.00 | 0.00 | 0.00 | 88 | 1020.8 |
| 20260507102944 | 10 | 0 | 0.0 | 0.0 | 0.00 | 0.00 | 0.00 | 88 | 1020.9 |
| 20260507102430 | 10 | 0 | 0.0 | 11.3 | 0.00 | 0.00 | 0.00 | 88 | 1020.9 |
| 20260507101918 | 10 | 0 | 0.0 | 11.3 | 0.00 | 0.00 | 0.00 | 88 | 1020.9 |
| 20260507100852 | 10 | 0 | 0.0 | 3.2 | 0.00 | 0.00 | 0.00 | 89 | 1020.9 |
| 20260507100338 | 10 | 0 | 0.0 | 0.0 | 0.00 | 0.00 | 0.00 | 89 | 1021.0 |
| 20260507095825 | 10 | 0 | 0.0 | 0.0 | 0.00 | 0.00 | 0.00 | 89 | 1021.1 |
| 20260507095312 | 10 | 0 | 0.0 | 0.0 | 0.00 | 0.00 | 0.00 | 89 | 1021.1 |
| 20260507094759 | 10 | 0 | 0.0 | 0.0 | 0.00 | 0.00 | 0.00 | 89 | 1021.1 |
| 20260507093733 | 10 | 0 | 0.0 | 8.0 | 0.00 | 0.00 | 0.00 | 89 | 1021.2 |
| 20260507093220 | 10 | 67 | 0.0 | 8.0 | 0.00 | 0.00 | 0.00 | 89 | 1021.2 |
| 20260507092707 | 10 | 0 | 0.0 | 0.0 | 0.00 | 0.00 | 0.00 | 89 | 1021.3 |
| 20260507092154 | 10 | 0 | 0.0 | 0.0 | 0.00 | 0.00 | 0.00 | 89 | 1021.3 |
| 20260507091641 | 10 | 67 | 0.0 | 11.3 | 0.00 | 0.00 | 0.00 | 89 | 1021.4 |
| 20260507091128 | 10 | 0 | 0.0 | 11.3 | 0.00 | 0.00 | 0.00 | 89 | 1021.5 |
| 20260507090615 | 10 | 96 | 1.6 | 11.3 | 0.00 | 0.00 | 0.00 | 89 | 1021.5 |
| 20260507085549 | 10 | 0 | 0.0 | 8.0 | 0.00 | 0.00 | 0.00 | 89 | 1021.5 |
| 20260507085036 | 10 | 0 | 0.0 | 8.0 | 0.00 | 0.00 | 0.00 | 89 | 1021.6 |
| 20260507084523 | 10 | 0 | 0.0 | 0.0 | 0.00 | 0.00 | 0.00 | 89 | 1021.6 |
| 20260507084010 | 10 | 0 | 0.0 | 0.0 | 0.00 | 0.00 | 0.00 | 89 | 1021.6 |
| 20260507083457 | 10 | 0 | 0.0 | 0.0 | 0.00 | 0.00 | 0.00 | 89 | 1021.6 |
| 20260507082945 | 10 | 0 | 0.0 | 0.0 | 0.00 | 0.00 | 0.00 | 89 | 1021.6 |
| 20260507082431 | 10 | 0 | 0.0 | 0.0 | 0.00 | 0.00 | 0.00 | 89 | 1021.5 |
| 20260507081918 | 10 | 0 | 0.0 | 0.0 | 0.00 | 0.00 | 0.00 | 89 | 1021.6 |
| 20260507081405 | 10 | 0 | 0.0 | 0.0 | 0.00 | 0.00 | 0.00 | 89 | 1021.5 |
| 20260507080852 | 10 | 0 | 0.0 | 0.0 | 0.00 | 0.00 | 0.00 | 89 | 1021.6 |
| 20260507080339 | 10 | 0 | 0.0 | 0.0 | 0.00 | 0.00 | 0.00 | 89 | 1021.6 |
| 20260507075826 | 10 | 0 | 0.0 | 0.0 | 0.00 | 0.00 | 0.00 | 89 | 1021.7 |
| 20260507075313 | 10 | 0 | 0.0 | 0.0 | 0.00 | 0.00 | 0.00 | 89 | 1021.6 |
| 20260507074801 | 10 | 0 | 0.0 | 0.0 | 0.00 | 0.00 | 0.00 | 89 | 1021.6 |
| 20260507074247 | 10 | 0 | 0.0 | 0.0 | 0.00 | 0.00 | 0.00 | 89 | 1021.6 |
| 20260507073734 | 10 | 0 | 0.0 | 0.0 | 0.00 | 0.00 | 0.00 | 89 | 1021.7 |
| 20260507073221 | 10 | 0 | 0.0 | 0.0 | 0.00 | 0.00 | 0.00 | 89 | 1021.7 |
| 20260507072156 | 10 | 0 | 0.0 | 0.0 | 0.00 | 0.00 | 0.00 | 89 | 1021.7 |
| 20260507071642 | 10 | 0 | 0.0 | 0.0 | 0.00 | 0.00 | 0.00 | 89 | 1021.7 |
| 20260507071129 | 10 | 0 | 0.0 | 0.0 | 0.00 | 0.00 | 0.00 | 88 | 1021.7 |
| 20260507065550 | 10 | 0 | 0.0 | 0.0 | 0.00 | 0.00 | 0.00 | 88 | 1021.7 |
| 20260507065037 | 10 | 0 | 0.0 | 0.0 | 0.00 | 0.00 | 0.00 | 88 | 1021.7 |
| 20260507064525 | 10 | 0 | 0.0 | 0.0 | 0.00 | 0.00 | 0.00 | 88 | 1021.8 |
| 20260507064011 | 10 | 0 | 0.0 | 0.0 | 0.00 | 0.00 | 0.00 | 88 | 1021.8 |
| 20260507063458 | 10 | 0 | 0.0 | 0.0 | 0.00 | 0.00 | 0.00 | 88 | 1021.8 |
| 20260507062945 | 10 | 0 | 0.0 | 0.0 | 0.00 | 0.00 | 0.00 | 88 | 1021.8 |
| 20260507062432 | 10 | 0 | 0.0 | 0.0 | 0.00 | 0.00 | 0.00 | 88 | 1021.9 |
| 20260507061920 | 10 | 0 | 0.0 | 0.0 | 0.00 | 0.00 | 0.00 | 88 | 1021.9 |
| 20260507061406 | 10 | 0 | 0.0 | 0.0 | 0.00 | 0.00 | 0.00 | 88 | 1021.8 |
| 20260507060853 | 10 | 0 | 0.0 | 0.0 | 0.00 | 0.00 | 0.00 | 88 | 1021.9 |
| 20260507060340 | 10 | 0 | 0.0 | 0.0 | 0.00 | 0.00 | 0.00 | 88 | 1021.9 |
| 20260507055827 | 10 | 0 | 0.0 | 0.0 | 0.00 | 0.00 | 0.00 | 88 | 1022.0 |
| 20260507055314 | 10 | 0 | 0.0 | 0.0 | 0.00 | 0.00 | 0.00 | 88 | 1022.0 |
| 20260507054803 | 10 | 0 | 0.0 | 0.0 | 0.00 | 0.00 | 0.00 | 88 | 1022.0 |
| 20260507054249 | 10 | 0 | 0.0 | 0.0 | 0.00 | 0.00 | 0.00 | 88 | 1022.0 |
| 20260507053735 | 10 | 0 | 0.0 | 0.0 | 0.00 | 0.00 | 0.00 | 88 | 1022.1 |
| 20260507053222 | 10 | 0 | 0.0 | 0.0 | 0.00 | 0.00 | 0.00 | 88 | 1022.1 |
| 20260507052709 | 10 | 0 | 0.0 | 0.0 | 0.00 | 0.00 | 0.00 | 88 | 1022.1 |
| 20260507052156 | 10 | 0 | 0.0 | 0.0 | 0.00 | 0.00 | 0.00 | 88 | 1022.1 |
| 20260507051643 | 10 | 0 | 0.0 | 0.0 | 0.00 | 0.00 | 0.00 | 88 | 1022.1 |
| 20260507051130 | 10 | 0 | 0.0 | 0.0 | 0.00 | 0.00 | 0.00 | 87 | 1022.1 |
| 20260507050619 | 10 | 0 | 0.0 | 0.0 | 0.00 | 0.00 | 0.00 | 87 | 1022.1 |
| 20260507050104 | 10 | 0 | 0.0 | 0.0 | 0.00 | 0.00 | 0.00 | 87 | 1022.2 |
| 20260507045551 | 10 | 0 | 0.0 | 0.0 | 0.00 | 0.00 | 0.00 | 87 | 1022.1 |
| 20260507045038 | 10 | 0 | 0.0 | 0.0 | 0.00 | 0.00 | 0.00 | 87 | 1022.1 |
| 20260507044525 | 10 | 0 | 0.0 | 0.0 | 0.00 | 0.00 | 0.00 | 87 | 1022.1 |
| 20260507044012 | 10 | 0 | 0.0 | 0.0 | 0.00 | 0.00 | 0.00 | 87 | 1022.1 |
| 20260507043459 | 11 | 0 | 0.0 | 0.0 | 0.00 | 0.00 | 0.00 | 87 | 1022.1 |
| 20260507042433 | 11 | 0 | 0.0 | 0.0 | 0.00 | 0.00 | 0.00 | 87 | 1022.0 |
| 20260507041920 | 11 | 0 | 0.0 | 0.0 | 0.00 | 0.00 | 0.00 | 87 | 1022.0 |
| 20260507041407 | 11 | 0 | 0.0 | 0.0 | 0.00 | 0.00 | 0.00 | 87 | 1022.0 |
| 20260507040854 | 11 | 0 | 0.0 | 0.0 | 0.00 | 0.00 | 0.00 | 87 | 1022.0 |
| 20260507040341 | 11 | 0 | 0.0 | 0.0 | 0.00 | 0.00 | 0.00 | 87 | 1022.0 |
| 20260507035828 | 11 | 0 | 0.0 | 0.0 | 0.00 | 0.00 | 0.00 | 87 | 1022.0 |
| 20260507035315 | 11 | 0 | 0.0 | 0.0 | 0.00 | 0.00 | 0.00 | 87 | 1021.9 |
| 20260507034802 | 11 | 0 | 0.0 | 0.0 | 0.00 | 0.00 | 0.00 | 87 | 1022.0 |
| 20260507034249 | 11 | 0 | 0.0 | 0.0 | 0.00 | 0.00 | 0.00 | 87 | 1022.0 |
| 20260507033736 | 11 | 0 | 0.0 | 0.0 | 0.00 | 0.00 | 0.00 | 87 | 1022.0 |
| 20260507033223 | 11 | 0 | 0.0 | 0.0 | 0.00 | 0.00 | 0.00 | 87 | 1022.0 |
| 20260507032710 | 11 | 0 | 0.0 | 0.0 | 0.00 | 0.00 | 0.00 | 87 | 1022.0 |
| 20260507032157 | 11 | 0 | 0.0 | 0.0 | 0.00 | 0.00 | 0.00 | 87 | 1022.0 |
| 20260507031644 | 11 | 0 | 0.0 | 0.0 | 0.00 | 0.00 | 0.00 | 87 | 1021.9 |
| 20260507031131 | 11 | 0 | 0.0 | 0.0 | 0.00 | 0.00 | 0.00 | 87 | 1021.9 |
| 20260507030618 | 11 | 0 | 0.0 | 0.0 | 0.00 | 0.00 | 0.00 | 87 | 1021.8 |
| 20260507030105 | 11 | 0 | 0.0 | 0.0 | 0.00 | 0.00 | 0.00 | 87 | 1021.8 |
| 20260507025552 | 11 | 0 | 0.0 | 0.0 | 0.00 | 0.00 | 0.00 | 87 | 1021.8 |
| 20260507025039 | 11 | 0 | 0.0 | 0.0 | 0.00 | 0.00 | 0.00 | 87 | 1021.8 |
| 20260507024526 | 11 | 0 | 0.0 | 0.0 | 0.00 | 0.00 | 0.00 | 87 | 1021.8 |
| 20260507024015 | 11 | 0 | 0.0 | 0.0 | 0.00 | 0.00 | 0.00 | 87 | 1021.7 |
| 20260507023500 | 11 | 0 | 0.0 | 0.0 | 0.00 | 0.00 | 0.00 | 87 | 1021.7 |
| 20260507022947 | 11 | 0 | 0.0 | 0.0 | 0.00 | 0.00 | 0.00 | 87 | 1021.8 |
| 20260507022434 | 11 | 0 | 0.0 | 0.0 | 0.00 | 0.00 | 0.00 | 87 | 1021.6 |
| 20260507021921 | 11 | 0 | 0.0 | 0.0 | 0.00 | 0.00 | 0.00 | 87 | 1021.7 |
| 20260507021408 | 11 | 0 | 0.0 | 0.0 | 0.00 | 0.00 | 0.00 | 87 | 1021.7 |
| 20260507020855 | 11 | 0 | 0.0 | 0.0 | 0.00 | 0.00 | 0.00 | 87 | 1021.7 |
| 20260507020342 | 11 | 0 | 0.0 | 0.0 | 0.00 | 0.00 | 0.00 | 87 | 1021.8 |
| 20260507015829 | 11 | 0 | 0.0 | 0.0 | 0.00 | 0.00 | 0.00 | 87 | 1021.9 |
| 20260507015316 | 11 | 0 | 0.0 | 0.0 | 0.00 | 0.00 | 0.00 | 87 | 1021.9 |
| 20260507014803 | 11 | 0 | 0.0 | 0.0 | 0.00 | 0.00 | 0.00 | 87 | 1022.0 |
| 20260507014250 | 11 | 0 | 0.0 | 0.0 | 0.00 | 0.00 | 0.00 | 87 | 1022.0 |
| 20260507013737 | 11 | 0 | 0.0 | 0.0 | 0.00 | 0.00 | 0.00 | 87 | 1022.0 |
| 20260507013224 | 11 | 0 | 0.0 | 0.0 | 0.00 | 0.00 | 0.00 | 87 | 1022.0 |
| 20260507012711 | 11 | 0 | 0.0 | 0.0 | 0.00 | 0.00 | 0.00 | 87 | 1022.1 |
| 20260507012158 | 11 | 0 | 0.0 | 0.0 | 0.00 | 0.00 | 0.00 | 87 | 1022.1 |
| 20260507011132 | 11 | 0 | 0.0 | 3.2 | 0.00 | 0.00 | 0.00 | 86 | 1022.1 |
| 20260507010619 | 11 | 0 | 0.0 | 3.2 | 0.00 | 0.00 | 0.00 | 87 | 1022.1 |
| 20260507010106 | 11 | 266 | 0.0 | 3.2 | 0.00 | 0.00 | 0.00 | 87 | 1022.2 |
| 20260507005553 | 11 | 0 | 0.0 | 0.0 | 0.00 | 0.00 | 0.00 | 87 | 1022.1 |
| 20260507004015 | 10 | 0 | 0.0 | 0.0 | 0.00 | 0.00 | 0.00 | 87 | 1022.3 |
| 20260507003501 | 11 | 0 | 0.0 | 6.4 | 0.00 | 0.00 | 0.00 | 86 | 1022.3 |
| 20260507002949 | 10 | 0 | 0.0 | 6.4 | 0.00 | 0.00 | 0.00 | 86 | 1022.3 |
| 20260507002435 | 10 | 261 | 0.0 | 6.4 | 0.00 | 0.00 | 0.00 | 86 | 1022.2 |
| 20260507001922 | 10 | 0 | 0.0 | 0.0 | 0.00 | 0.00 | 0.00 | 87 | 1022.2 |
| 20260507001409 | 11 | 0 | 0.0 | 0.0 | 0.00 | 0.00 | 0.00 | 86 | 1022.3 |
| 20260507000856 | 11 | 0 | 0.0 | 0.0 | 0.00 | 0.00 | 0.00 | 86 | 1022.2 |
| 20260507000343 | 10 | 0 | 0.0 | 6.4 | 0.00 | 0.00 | 0.00 | 86 | 1022.3 |
| 20260506235830 | 10 | 0 | 0.0 | 6.4 | 0.00 | 0.00 | 0.00 | 86 | 1022.4 |
| 20260506235317 | 11 | 0 | 0.0 | 6.4 | 0.00 | 0.00 | 0.00 | 86 | 1022.4 |
| 20260506234804 | 10 | 0 | 0.0 | 3.2 | 0.00 | 0.00 | 0.00 | 86 | 1022.3 |
| 20260506234251 | 11 | 0 | 0.0 | 3.2 | 0.00 | 0.00 | 0.00 | 86 | 1022.4 |
| 20260506233738 | 11 | 246 | 0.0 | 3.2 | 0.00 | 0.00 | 0.00 | 86 | 1022.5 |
| 20260506233225 | 11 | 0 | 0.0 | 11.3 | 0.00 | 0.00 | 0.00 | 86 | 1022.5 |
| 20260506232712 | 11 | 0 | 0.0 | 11.3 | 0.00 | 0.00 | 0.00 | 86 | 1022.4 |
| 20260506232159 | 11 | 291 | 8.0 | 11.3 | 0.00 | 0.00 | 0.00 | 85 | 1022.5 |
| 20260506231646 | 11 | 306 | 0.0 | 11.3 | 0.00 | 0.00 | 0.00 | 86 | 1022.5 |
| 20260506231133 | 10 | 280 | 6.4 | 11.3 | 0.00 | 0.00 | 0.00 | 85 | 1022.5 |
| 20260506230107 | 11 | 298 | 9.7 | 11.3 | 0.00 | 0.00 | 0.00 | 85 | 1022.6 |
| 20260506225554 | 11 | 299 | 1.6 | 11.3 | 0.00 | 0.00 | 0.00 | 85 | 1022.6 |
| 20260506225041 | 11 | 289 | 8.0 | 11.3 | 0.00 | 0.00 | 0.00 | 85 | 1022.6 |
| 20260506224528 | 11 | 284 | 9.7 | 11.3 | 0.00 | 0.00 | 0.00 | 85 | 1022.6 |
| 20260506224015 | 11 | 296 | 8.0 | 11.3 | 0.00 | 0.00 | 0.00 | 85 | 1022.7 |
| 20260506223502 | 11 | 291 | 8.0 | 12.9 | 0.00 | 0.00 | 0.00 | 85 | 1022.7 |
| 20260506222949 | 11 | 282 | 8.0 | 12.9 | 0.00 | 0.00 | 0.00 | 85 | 1022.8 |
| 20260506222436 | 11 | 309 | 8.0 | 12.9 | 0.00 | 0.00 | 0.00 | 85 | 1022.7 |
| 20260506221923 | 11 | 308 | 9.7 | 12.9 | 0.00 | 0.00 | 0.00 | 85 | 1022.7 |
| 20260506221410 | 11 | 312 | 9.7 | 11.3 | 0.00 | 0.00 | 0.00 | 85 | 1022.7 |
| 20260506220857 | 11 | 285 | 6.4 | 12.9 | 0.00 | 0.00 | 0.00 | 85 | 1022.8 |
| 20260506220344 | 11 | 295 | 4.8 | 12.9 | 0.00 | 0.00 | 0.00 | 85 | 1022.8 |
| 20260506215318 | 11 | 261 | 3.2 | 12.9 | 0.00 | 0.00 | 0.00 | 85 | 1022.7 |
| 20260506214805 | 11 | 273 | 0.0 | 12.9 | 0.00 | 0.00 | 0.00 | 85 | 1022.6 |
| 20260506214251 | 11 | 305 | 4.8 | 12.9 | 0.00 | 0.00 | 0.00 | 85 | 1022.7 |
| 20260506213739 | 11 | 0 | 0.0 | 11.3 | 0.00 | 0.00 | 0.00 | 86 | 1022.7 |
| 20260506213225 | 11 | 266 | 0.0 | 11.3 | 0.00 | 0.00 | 0.00 | 86 | 1022.7 |
| 20260506212713 | 11 | 278 | 6.4 | 11.3 | 0.00 | 0.00 | 0.00 | 86 | 1022.7 |
| 20260506212200 | 11 | 291 | 4.8 | 9.7 | 0.00 | 0.00 | 0.00 | 86 | 1022.7 |
| 20260506211648 | 11 | 291 | 4.8 | 11.3 | 0.00 | 0.00 | 0.00 | 86 | 1022.6 |
| 20260506211133 | 11 | 278 | 0.0 | 11.3 | 0.00 | 0.00 | 0.00 | 86 | 1022.7 |
| 20260506210621 | 11 | 322 | 6.4 | 11.3 | 0.00 | 0.00 | 0.00 | 86 | 1022.6 |
| 20260506210108 | 11 | 284 | 0.0 | 9.7 | 0.00 | 0.00 | 0.00 | 86 | 1022.6 |
| 20260506205555 | 11 | 295 | 8.0 | 9.7 | 0.00 | 0.00 | 0.00 | 86 | 1022.6 |
| 20260506205041 | 11 | 0 | 0.0 | 9.7 | 0.00 | 0.00 | 0.00 | 86 | 1022.6 |
| 20260506204528 | 11 | 253 | 3.2 | 9.7 | 0.00 | 0.00 | 0.00 | 86 | 1022.6 |
| 20260506204015 | 11 | 264 | 1.6 | 12.9 | 0.00 | 0.00 | 0.00 | 87 | 1022.6 |
| 20260506203503 | 11 | 0 | 0.0 | 12.9 | 0.00 | 0.00 | 0.00 | 86 | 1022.6 |
| 20260506202949 | 11 | 252 | 1.6 | 12.9 | 0.00 | 0.00 | 0.00 | 87 | 1022.5 |
| 20260506201924 | 11 | 250 | 3.2 | 11.3 | 0.00 | 0.00 | 0.00 | 87 | 1022.4 |
| 20260506201410 | 11 | 273 | 6.4 | 11.3 | 0.00 | 0.00 | 0.00 | 87 | 1022.4 |
| 20260506200857 | 11 | 0 | 0.0 | 9.7 | 0.00 | 0.00 | 0.00 | 87 | 1022.5 |
| 20260506200345 | 11 | 0 | 3.2 | 3.2 | 0.00 | 0.00 | 0.00 | 87 | 1022.6 |
| 20260506195831 | 11 | 319 | 6.4 | 12.9 | 0.00 | 0.00 | 0.00 | 87 | 1022.6 |
| 20260506195319 | 11 | 245 | 9.7 | 12.9 | 0.00 | 0.00 | 0.00 | 87 | 1022.6 |
| 20260506194805 | 11 | 299 | 4.8 | 12.9 | 0.00 | 0.00 | 0.00 | 87 | 1022.4 |
| 20260506194252 | 11 | 306 | 6.4 | 11.3 | 0.00 | 0.00 | 0.00 | 86 | 1022.6 |
| 20260506193740 | 11 | 302 | 1.6 | 11.3 | 0.00 | 0.00 | 0.00 | 86 | 1022.5 |
| 20260506193226 | 11 | 295 | 4.8 | 11.3 | 0.00 | 0.00 | 0.00 | 87 | 1022.5 |
| 20260506192714 | 11 | 267 | 0.0 | 11.3 | 0.00 | 0.00 | 0.00 | 87 | 1022.5 |
| 20260506192200 | 11 | 284 | 1.6 | 11.3 | 0.00 | 0.00 | 0.00 | 87 | 1022.5 |
| 20260506191648 | 11 | 268 | 1.6 | 12.9 | 0.00 | 0.00 | 0.00 | 87 | 1022.5 |
| 20260506191134 | 11 | 246 | 3.2 | 12.9 | 0.00 | 0.00 | 0.00 | 87 | 1022.5 |
| 20260506190621 | 11 | 294 | 0.0 | 12.9 | 0.00 | 0.00 | 0.00 | 87 | 1022.4 |
| 20260506190108 | 11 | 231 | 1.6 | 9.7 | 0.00 | 0.00 | 0.00 | 87 | 1022.4 |